Time;durP1;ratioP1;P1;durP2;ratioP2;P2;SDS_P1;SDS_P2;PMS_P1;PMS_P2;Temp;Humidity;BMP_temperature;BMP_pressure;BME280_temperature;BME280_humidity;BME280_pressure;Samples;Min_cycle;Max_cycle;Signal;HPM_P1;HPM_P2
2022/06/14 00:02:20;;;;;;;;;;;;;;;14.14;100.00;98487.20;1631065;86;24011;-87
2022/06/14 00:05:06;;;;;;;;;;;;;;;14.14;100.00;98485.88;1631412;86;22426;-87
2022/06/14 00:07:53;;;;;;;;;;;;;;;14.12;100.00;98483.05;1633679;86;20196;-89
2022/06/14 00:10:21;;;;;;;;;;;;;;;14.12;100.00;98491.77;1631670;87;24788;-89
2022/06/14 00:12:52;;;;;;;4.33;2.20;;;;;;;14.10;100.00;98487.59;1628081;87;28088;-85
2022/06/14 00:15:19;;;;;;;3.75;2.40;;;;;;;14.08;100.00;98488.19;1624553;86;28115;-85
2022/06/14 00:17:45;;;;;;;6.35;2.55;;;;;;;14.08;100.00;98490.81;1622934;86;28141;-89
2022/06/14 00:20:13;;;;;;;2.20;1.92;;;;;;;14.06;100.00;98490.97;1626932;86;28149;-87
2022/06/14 00:22:46;;;;;;;4.17;2.08;;;;;;;14.05;100.00;98493.23;1625170;86;28468;-86
2022/06/14 00:25:27;;;;;;;;;;;;;;;14.05;100.00;98494.55;1634467;86;28081;-88
2022/06/14 00:27:57;;;;;;;;;;;;;;;13.99;100.00;98501.64;1631727;87;26033;-88
2022/06/14 00:30:31;;;;;;;;;;;;;;;13.93;100.00;98498.19;1605442;87;21439;-88
2022/06/14 00:33:06;;;;;;;;;;;;;;;13.87;100.00;98502.64;1644658;86;20307;-90
2022/06/14 00:35:35;;;;;;;;;;;;;;;13.87;100.00;98503.11;1644960;86;24421;-90
2022/06/14 00:38:03;;;;;;;;;;;;;;;13.85;100.00;98505.06;1596532;88;22708;-88
2022/06/14 00:40:41;;;;;;;;;;;;;;;13.82;100.00;98503.02;1633579;87;26781;-85
2022/06/14 00:43:14;;;;;;;;;;;;;;;13.77;100.00;98504.36;1630781;86;24403;-90
2022/06/14 00:45:42;;;;;;;;;;;;;;;13.67;100.00;98492.44;1622847;87;20250;-88
2022/06/14 00:48:28;;;;;;;;;;;;;;;13.63;100.00;98502.86;1625948;87;24713;-87
2022/06/14 00:50:58;;;;;;;;;;;;;;;13.61;100.00;98506.09;1606429;88;22085;-90
2022/06/14 00:53:32;;;;;;;;;;;;;;;13.58;100.00;98506.31;1628697;87;25982;-87
2022/06/14 00:56:12;;;;;;;;;;;;;;;13.57;100.00;98507.30;1630730;86;24528;-88
2022/06/14 00:58:40;;;;;;;;;;;;;;;13.55;100.00;98508.38;1625323;87;20212;-88
2022/06/14 01:01:07;;;;;;;;;;;;;;;13.51;100.00;98507.80;1638186;86;24842;-88
2022/06/14 01:03:37;;;;;;;;;;;;;;;13.50;100.00;98515.32;1599158;87;22142;-87
2022/06/14 01:06:07;;;;;;;;;;;;;;;13.48;100.00;98519.86;1632773;86;26106;-90
2022/06/14 01:08:47;;;;;;;;;;;;;;;13.48;100.00;98522.95;1625138;87;25373;-86
2022/06/14 01:11:21;;;;;;;;;;;;;;;13.46;100.00;98521.79;1646156;86;20757;-88
2022/06/14 01:13:47;;;;;;;;;;;;;;;13.46;100.00;98524.89;1641967;86;25012;-89
2022/06/14 01:16:13;;;;;;;;;;;;;;;13.44;100.00;98522.86;1639018;86;22244;-88
2022/06/14 01:18:41;;;;;;;;;;;;;;;13.44;100.00;98526.33;1638725;86;21002;-88
2022/06/14 01:21:07;;;;;;;;;;;;;;;13.45;100.00;98531.11;1640469;86;24582;-88
2022/06/14 01:23:33;;;;;;;;;;;;;;;13.47;100.00;98529.20;1614199;87;20380;-86
2022/06/14 01:26:02;;;;;;;;;;;;;;;13.49;100.00;98523.32;1610781;87;24824;-86
2022/06/14 01:28:29;;;;;;;;;;;;;;;13.49;100.00;98525.47;1619662;87;22813;-86
2022/06/14 01:31:03;;;;;;;;;;;;;;;13.49;100.00;98521.53;1640239;86;26108;-88
2022/06/14 01:33:38;;;;;;;;;;;;;;;13.46;100.00;98527.53;1638099;86;25466;-90
2022/06/14 01:36:12;;;;;;;;;;;;;;;13.40;100.00;98528.84;1626159;86;20265;-88
2022/06/14 01:38:39;;;;;;;;;;;;;;;13.41;100.00;98527.90;1609062;88;24829;-86
2022/06/14 01:41:08;;;;;;;;;;;;;;;13.43;100.00;98531.22;1636677;87;22652;-86
2022/06/14 01:43:51;;;;;;;;;;;;;;;13.43;100.00;98536.48;1632823;87;25969;-89
2022/06/14 01:46:18;;;;;;;;;;;;;;;13.42;100.00;98541.38;1599127;88;24458;-86
2022/06/14 01:48:49;;;;;;;;;;;;;;;13.37;100.00;98540.91;1639264;87;20333;-86
2022/06/14 01:54:28;;;;;;;;;;;;;;;13.31;100.00;98543.54;1536165;92;22016;-86
2022/06/14 01:57:02;;;;;;;;;;;;;;;13.29;100.00;98547.27;1610556;87;26270;-88
2022/06/14 01:59:39;;;;;;;;;;;;;;;13.27;100.00;98550.00;1637262;86;24454;-88
2022/06/14 02:02:07;;;;;;;;;;;;;;;13.24;100.00;98549.42;1603777;88;20347;-91
2022/06/14 02:04:54;;;;;;;;;;;;;;;13.21;100.00;98552.27;1615223;87;24821;-88
2022/06/14 02:07:40;;;;;;;;;;;;;;;13.21;100.00;98561.47;1621078;88;21825;-90
2022/06/14 02:10:08;;;;;;;;;;;;;;;13.21;100.00;98560.16;1635094;86;26215;-86
2022/06/14 02:12:36;;;;;;;;;;;;;;;13.21;100.00;98564.10;1595319;87;24435;-88
2022/06/14 02:15:10;;;;;;;;;;;;;;;13.19;100.00;98564.24;1620907;87;20474;-88
2022/06/14 02:17:44;;;;;;;;;;;;;;;13.19;100.00;98570.81;1622341;86;24977;-90
2022/06/14 02:20:20;;;;;;;;;;;;;;;13.18;100.00;98574.87;1624038;86;21948;-90
2022/06/14 02:22:48;;;;;;;;;;;;;;;13.16;100.00;98580.70;1622552;88;26074;-91
2022/06/14 02:25:16;;;;;;;;;;;;;;;13.17;100.00;98583.22;1636255;86;24521;-90
2022/06/14 02:27:44;;;;;;;;;;;;;;;13.20;100.00;98586.91;1594523;87;20220;-88
2022/06/14 02:30:17;;;;;;;;;;;;;;;13.22;100.00;98586.33;1622873;86;24877;-90
2022/06/14 02:32:46;;;;;;;;;;;;;;;13.23;100.00;98589.80;1631147;86;22957;-87
2022/06/14 02:35:16;;;;;;;;;;;;;;;13.22;100.00;98593.38;1632286;86;26858;-88
2022/06/14 02:37:50;;;;;;;;;;;;;;;13.22;100.00;98590.75;1601384;89;25073;-88
2022/06/14 02:40:19;;;;;;;;;;;;;;;13.22;100.00;98593.38;1607045;86;20508;-87
2022/06/14 02:42:47;;;;;;;;;;;;;;;13.23;100.00;98600.30;1602358;88;25383;-90
2022/06/14 02:45:15;;;;;;;;;;;;;;;13.23;100.00;98598.99;1630428;87;22080;-89
2022/06/14 02:47:43;;;;;;;;;;;;;;;13.22;100.00;98605.20;1605450;88;26072;-85
2022/06/14 02:50:10;;;;;;;;;;;;;;;13.21;100.00;98604.83;1614840;87;24860;-86
2022/06/14 02:52:50;;;;;;;;;;;;;;;13.20;100.00;98605.31;1614787;87;20298;-86
2022/06/14 02:55:30;;;;;;;;;;;;;;;13.20;100.00;98604.50;1615345;87;24806;-86
2022/06/14 02:58:24;;;;;;;;;;;;;;;13.19;100.00;98615.97;1604234;88;20176;-87
2022/06/14 03:01:14;;;;;;;;;;;;;;;13.18;100.00;98607.72;1610769;87;22132;-86
2022/06/14 03:04:00;;;;;;;;;;;;;;;13.19;100.00;98611.55;1656894;85;20540;-89
2022/06/14 03:07:03;;;;;;;;;;;;;;;13.14;100.00;98613.70;1656919;85;20168;-89
2022/06/14 03:09:48;;;;;;;;;;;;;;;13.17;100.00;98616.55;1656970;85;20894;-89
2022/06/14 03:12:44;;;;;;;;;;;;;;;13.17;100.00;98616.55;1656323;85;20153;-84
2022/06/14 03:15:33;;;;;;;;;;;;;;;13.15;100.00;98622.39;1630066;87;24073;-88
2022/06/14 03:18:28;;;;;;;;;;;;;;;13.11;100.00;98623.55;1631597;86;22453;-86
2022/06/14 03:21:21;;;;;;;;;;;;;;;13.04;100.00;98625.81;1615827;87;20249;-89
2022/06/14 03:23:56;;;;;;;;;;;;;;;13.00;100.00;98630.95;1614671;87;24870;-85
2022/06/14 03:26:31;;;;;;;;;;;;;;;12.96;100.00;98631.67;1615045;87;21973;-85
2022/06/14 03:29:01;;;;;;;;;;;;;;;12.94;100.00;98633.56;1609402;87;26029;-88
2022/06/14 03:31:29;;;;;;;;;;;;;;;12.96;100.00;98638.23;1612832;87;24445;-90
2022/06/14 03:34:13;;;;;;;;;;;;;;;12.99;100.00;98634.05;1665590;84;20249;-88
2022/06/14 03:36:42;;;;;;;;;;;;;;;13.07;100.00;98634.79;1673197;84;24727;-89
2022/06/14 03:39:10;;;;;;;;;;;;;;;13.17;100.00;98640.20;1664934;85;22166;-90
2022/06/14 03:41:37;;;;;;;;;;;;;;;13.19;100.00;98639.14;1669267;84;26028;-89
2022/06/14 03:44:04;;;;;;;;;;;;;;;13.17;100.00;98645.45;1671080;84;24438;-90
2022/06/14 03:46:32;;;;;;;;;;;;;;;13.21;100.00;98652.98;1668184;84;20925;-89
2022/06/14 03:49:00;;;;;;;;;;;;;;;13.22;100.00;98655.97;1668476;84;24713;-87
2022/06/14 03:51:29;;;;;;;;;;;;;;;13.24;100.00;98655.86;1673738;83;22731;-85
2022/06/14 03:53:56;;;;;;;;;;;;;;;13.25;100.00;98667.58;1673116;84;26074;-85
2022/06/14 03:56:50;;;;;;;;;;;;;;;13.25;100.00;98669.38;1638785;86;24513;-88
2022/06/14 03:59:24;;;;;;;;;;;;;;;13.23;100.00;98672.58;1650561;86;20355;-89
2022/06/14 04:02:07;;;;;;;;;;;;;;;13.24;100.00;98680.83;1618223;87;25460;-91
2022/06/14 04:04:35;;;;;;;;;;;;;;;13.27;100.00;98679.27;1669161;84;22553;-87
2022/06/14 04:07:23;;;;;;;;;;;;;;;13.29;100.00;98680.00;1671561;84;25969;-90
2022/06/14 04:10:08;;;;;;;;;;;;;;;13.34;100.00;98678.69;1672591;85;24468;-90
2022/06/14 04:12:38;;;;;;;;;;;;;;;13.35;100.00;98680.84;1671260;84;20218;-89
2022/06/14 04:15:18;;;;;;;;;;;;;;;13.40;100.00;98690.05;1668566;84;24968;-89
2022/06/14 04:18:34;;;;;;;;;;;;;;;13.40;100.00;98686.58;1668143;85;22707;-88
2022/06/14 04:20:35;;;;;;;;;;;;;;;13.41;100.00;98684.31;1671489;84;26593;-89
2022/06/14 04:23:28;;;;;;;;;;;;;;;13.45;100.00;98689.69;1666034;84;24501;-89
2022/06/14 04:26:00;;;;;;;;;;;;;;;13.49;100.00;98688.96;1680619;85;20168;-90
2022/06/14 04:28:28;;;;;;;;;;;;;;;13.52;100.00;98696.16;1671545;84;24819;-88
2022/06/14 04:31:03;;;;;;;;;;;;;;;13.55;100.00;98695.91;1665835;84;22060;-88
2022/06/14 04:33:35;;;;;;;;;;;;;;;13.61;100.00;98697.22;1670045;84;25972;-90
2022/06/14 04:36:13;;;;;;;;;;;;;;;13.64;100.00;98695.66;1664860;85;24405;-88
2022/06/14 04:38:50;;;;;;;;;;;;;;;13.66;100.00;98698.53;1671834;83;20269;-89
2022/06/14 04:41:26;;;;;;;;;;;;;;;13.70;100.00;98701.28;1670587;85;24920;-86
2022/06/14 04:44:00;;;;;;;;;;;;;;;13.71;100.00;98697.69;1660288;85;22453;-90
2022/06/14 04:46:28;;;;;;;;;;;;;;;13.74;100.00;98700.10;1666171;85;25997;-87
2022/06/14 04:49:15;;;;;;;;;;;;;;;13.73;100.00;98696.27;1664862;85;24404;-90
2022/06/14 04:51:57;;;;;;;;;;;;;;;13.78;100.00;98698.05;1670625;85;20163;-90
2022/06/14 04:54:26;;;;;;;;;;;;;;;13.82;100.00;98704.27;1628448;87;24792;-89
2022/06/14 04:57:06;;;;;;;;;;;;;;;13.83;100.00;98699.37;1635861;86;21976;-85
2022/06/14 04:59:38;;;;;;;;;;;;;;;13.83;100.00;98700.69;1652046;86;26057;-90
2022/06/14 05:02:05;;;;;;;;;;;;;;;13.86;100.00;98702.22;1598133;88;24514;-90
2022/06/14 05:04:33;;;;;;;;;;;;;;;13.87;100.00;98704.38;1616393;87;20240;-90
2022/06/14 05:07:24;;;;;;;;;;;;;;;13.88;100.00;98699.47;1631119;87;24821;-88
2022/06/14 05:09:51;;;;;;;;;;;;;;;13.93;100.00;98699.47;1647403;86;21955;-86
2022/06/14 05:12:19;;;;;;;;;;;;;;;14.00;100.00;98698.03;1603213;87;26247;-87
2022/06/14 05:14:47;;;;;;;;;;;;;;;14.01;100.00;98702.82;1626089;87;24561;-88
2022/06/14 05:17:32;;;;;;;;;;;;;;;14.06;100.00;98706.76;1597779;88;20265;-88
2022/06/14 05:20:04;;;;;;;;;;;;;;;14.10;100.00;98708.19;1632523;86;24933;-90
2022/06/14 05:22:49;;;;;;;;;;;;;;;14.14;100.00;98699.55;1645138;86;22187;-88
2022/06/14 05:25:15;;;;;;;;;;;;;;;14.21;100.00;98702.05;1636491;86;26027;-90
2022/06/14 05:27:59;;;;;;;;;;;;;;;14.30;100.00;98700.47;1641125;86;24665;-86
2022/06/14 05:30:30;;;;;;;;;;;;;;;14.32;100.00;98702.03;1641259;86;20265;-85
2022/06/14 05:32:58;;;;;;;;;;;;;;;14.44;100.00;98705.02;1631524;86;24842;-85
2022/06/14 05:35:26;;;;;;;;;;;;;;;14.53;100.00;98709.53;1634385;86;21982;-87
2022/06/14 05:37:56;;;;;;;;;;;;;;;14.64;100.00;98704.70;1635482;86;25996;-89
2022/06/14 05:40:40;;;;;;;;;;;;;;;14.73;100.00;98709.72;1595365;88;25162;-89
2022/06/14 05:43:12;;;;;;;;;;;;;;;14.83;100.00;98708.83;1634716;87;20219;-89
2022/06/14 05:45:37;;;;;;;;;;;;;;;14.95;100.00;98709.58;1608858;87;24755;-90
2022/06/14 05:48:06;;;;;;;;;;;;;;;15.01;100.00;98699.84;1597121;88;22074;-87
2022/06/14 05:50:41;;;;;;;;;;;;;;;15.19;100.00;98714.13;1624320;87;26678;-89
2022/06/14 05:53:06;;;;;;;;;;;;;;;15.23;100.00;98708.95;1624079;87;23981;-88
2022/06/14 05:55:40;;;;;;;;;;;;;;;15.34;100.00;98708.88;1623695;86;27381;-89
2022/06/14 05:58:08;;;;;;;;;;;;;;;15.45;100.00;98707.95;1622178;86;114262;-87
2022/06/14 06:00:54;;;;;;;;;;;;;;;15.54;100.00;98709.02;1615519;88;21981;-90
2022/06/14 06:03:40;;;;;;;;;;;;;;;15.59;100.00;98703.70;1637975;86;26099;-89
2022/06/14 06:06:08;;;;;;;;;;;;;;;15.64;100.00;98707.27;1593498;87;24428;-87
2022/06/14 06:08:51;;;;;;;;;;;;;;;15.64;100.00;98713.37;1628940;87;20237;-89
2022/06/14 06:11:36;;;;;;;;;;;;;;;15.67;100.00;98718.38;1607706;88;24845;-88
2022/06/14 06:14:04;;;;;;;;;;;;;;;15.72;100.00;98714.02;1598601;89;22166;-89
2022/06/14 06:16:38;;;;;;;;;;;;;;;15.75;100.00;98711.97;1581304;89;26080;-88
2022/06/14 06:19:04;;;;;;;;;;;;;;;15.77;100.00;98717.93;1568510;90;25157;-87
2022/06/14 06:21:36;;;;;;;;;;;;;;;15.76;100.00;98721.56;1590720;89;20241;-90
2022/06/14 06:24:04;;;;;;;;;;;;;;;15.78;100.00;98721.41;1587276;87;24625;-86
2022/06/14 06:26:35;;;;;;;;;;;;;;;15.80;100.00;98727.41;1591727;88;22535;-89
2022/06/14 06:29:07;;;;;;;;;;;;;;;15.82;100.00;98730.72;1586251;89;26079;-86
2022/06/14 06:31:35;;;;;;;;;;;;;;;15.84;100.00;98730.12;1588883;88;49875;-88
2022/06/14 06:34:05;;;;;;;;;;;;;;;15.91;100.00;98731.27;1584588;89;20235;-90
2022/06/14 06:36:49;;;;;;;;;;;;;;;15.98;100.00;98732.41;1570912;89;24882;-86
2022/06/14 06:39:35;;;;;;;;;;;;;;;16.00;100.00;98732.26;1576403;89;22215;-88
2022/06/14 06:42:09;;;;;;;;;;;;;;;16.05;100.00;98732.20;1580761;89;26052;-88
2022/06/14 06:44:59;;;;;;;;;;;;;;;16.09;100.00;98732.80;1586117;89;25242;-89
2022/06/14 06:47:30;;;;;;;;;;;;;;;16.13;100.00;98731.55;1616608;88;20385;-86
2022/06/14 06:50:04;;;;;;;;;;;;;;;16.11;100.00;98731.67;1614691;87;24822;-89
2022/06/14 06:52:38;;;;;;;;;;;;;;;16.19;100.00;98731.85;1613033;87;22053;-89
2022/06/14 06:55:06;;;;;;;;;;;;;;;16.28;100.00;98733.67;1586128;88;26059;-86
2022/06/14 06:57:33;;;;;;;;;;;;;;;16.38;100.00;98734.16;1622631;87;24702;-89
2022/06/14 07:00:01;;;;;;;;;;;;;;;16.42;100.00;98739.03;1619745;88;20308;-89
2022/06/14 07:02:31;;;;;;;;;;;;;;;16.40;100.00;98742.80;1615201;87;24736;-89
2022/06/14 07:05:03;;;;;;;;;;;;;;;16.32;100.00;98742.15;1617329;87;23049;-87
2022/06/14 07:07:30;;;;;;;;;;;;;;;16.38;100.00;98741.61;1617107;87;26317;-86
2022/06/14 07:10:01;;;;;;;;;;;;;;;16.42;100.00;98745.64;1618168;87;24476;-86
2022/06/14 07:12:32;;;;;;;;;;;;;;;16.43;100.00;98745.16;1618421;87;20283;-87
2022/06/14 07:15:00;;;;;;;;;;;;;;;16.47;100.00;98739.49;1615463;88;25538;-87
2022/06/14 07:17:40;;;;;;;;;;;;;;;16.51;100.00;98739.56;1619963;87;22108;-86
2022/06/14 07:20:07;;;;;;;;;;;;;;;16.68;100.00;98742.05;1614287;88;26030;-87
2022/06/14 07:22:53;;;;;;;;;;;;;;;16.83;100.00;98745.94;1624390;87;26854;-89
2022/06/14 07:25:22;;;;;;;;;;;;;;;16.99;100.00;98738.77;1624337;88;20269;-87
2022/06/14 07:27:52;;;;;;;;;;;;;;;17.16;100.00;98740.72;1624331;88;24709;-90
2022/06/14 07:30:23;;;;;;;;;;;;;;;17.21;100.00;98745.58;1623697;87;22818;-90
2022/06/14 07:32:51;;;;;;;;;;;;;;;17.26;100.00;98747.30;1634371;86;26048;-90
2022/06/14 07:35:19;;;;;;;;;;;;;;;17.30;100.00;98743.39;1623486;86;24611;-88
2022/06/14 07:37:46;;;;;;;;;;;;;;;17.31;100.00;98741.10;1647079;86;20226;-89
2022/06/14 07:40:14;;;;;;;;;;;;;;;17.33;100.00;98746.61;1651131;86;24830;-87
2022/06/14 07:42:51;;;;;;;;;;;;;;;17.43;100.00;98744.78;1639235;86;21946;-86
2022/06/14 07:45:19;;;;;;;;;;;;;;;17.55;100.00;98746.77;1624355;87;26228;-90
2022/06/14 07:47:49;;;;;;;;;;;;;;;17.71;100.00;98743.55;1637521;86;25114;-89
2022/06/14 07:50:24;;;;;;;;;;;;;;;17.82;100.00;98747.34;1651282;86;20261;-90
2022/06/14 07:52:56;;;;;;;;;;;;;;;17.88;100.00;98745.45;1647144;86;24841;-87
2022/06/14 07:55:31;;;;;;;;;;;;;;;17.95;100.00;98747.83;1652752;86;22157;-87
2022/06/14 07:58:02;;;;;;;;;;;;;;;18.01;100.00;98743.77;1616434;86;26761;-87
2022/06/14 08:03:43;;;;;;;;;;;;;;;18.17;100.00;98743.97;1615091;87;35674;-90
2022/06/14 08:06:11;;;;;;;;;;;;;;;18.28;100.00;98735.83;1617470;87;25487;-90
2022/06/14 08:08:39;;;;;;;;;;;;;;;18.35;100.00;98732.94;1617703;86;21997;-86
2022/06/14 08:11:06;;;;;;;;;;;;;;;18.36;100.00;98723.52;1637870;85;26071;-90
2022/06/14 08:13:34;;;;;;;;;;;;;;;18.42;100.00;98726.55;1620507;87;24691;-90
2022/06/14 08:16:03;;;;;;;;;;;;;;;18.50;100.00;98727.45;1623649;87;20197;-87
2022/06/14 08:18:31;;;;;;;;;;;;;;;18.57;100.00;98723.76;1627999;86;24432;-87
2022/06/14 08:21:04;;;;;;;;;;;;;;;18.62;100.00;98723.65;1615792;87;21958;-87
2022/06/14 08:23:31;;;;;;;;;;;;;;;18.57;100.00;98722.43;1639143;86;26098;-87
2022/06/14 08:26:08;;;;;;;;;;;;;;;18.43;100.00;98714.98;1648214;85;24549;-86
2022/06/14 08:28:36;;;;;;;;;;;;;;;18.40;100.00;98709.47;1647452;86;20315;-87
2022/06/14 08:31:06;;;;;;;;;;;;;;;18.38;100.00;98712.78;1613244;85;24803;-87
2022/06/14 08:33:34;;;;;;;;;;;;;;;18.29;100.00;98711.00;1614115;87;22080;-87
2022/06/14 08:36:02;;;;;;;;;;;;;;;18.23;100.00;98712.42;1615639;87;26078;-90
2022/06/14 08:38:33;;;;;;;;;;;;;;;18.15;100.00;98704.89;1668034;84;24654;-87
2022/06/14 08:41:07;;;;;;;;;;;;;;;18.18;100.00;98708.55;1665853;84;20345;-86
2022/06/14 08:43:43;;;;;;;;;;;;;;;18.21;100.00;98702.48;1664439;85;24809;-86
2022/06/14 08:46:27;;;;;;;;;;;;;;;18.35;100.00;98701.14;1672877;83;21816;-89
2022/06/14 08:49:13;;;;;;;;;;;;;;;18.44;100.00;98690.95;1675246;83;26647;-89
2022/06/14 08:51:50;;;;;;;;;;;;;;;18.61;100.00;98690.16;1668930;84;24419;-87
2022/06/14 08:54:33;;;;;;;;;;;;;;;18.75;100.00;98695.44;1666153;84;20281;-89
2022/06/14 08:57:00;;;;;;;;;;;;;;;18.89;100.00;98696.70;1671316;84;24766;-89
2022/06/14 08:59:37;;;;;;;;;;;;;;;19.03;100.00;98696.17;1664053;85;22082;-89
2022/06/14 09:02:08;;;;;;;;;;;;;;;19.15;100.00;98700.22;1670254;84;26447;-86
2022/06/14 09:04:36;;;;;;;;;;;;;;;19.21;100.00;98695.63;1676126;84;24596;-86
2022/06/14 09:07:19;;;;;;;;;;;;;;;19.14;100.00;98703.41;1667870;84;20421;-86
2022/06/14 09:09:59;;;;;;;;;;;;;;;19.08;100.00;98692.56;1672482;84;24769;-86
2022/06/14 09:12:26;;;;;;;;;;;;;;;19.10;100.00;98687.92;1669655;84;21994;-86
2022/06/14 09:14:54;;;;;;;;;;;;;;;19.17;100.00;98694.28;1674735;84;26034;-86
2022/06/14 09:17:28;;;;;;;;;;;;;;;19.11;100.00;98693.56;1640508;86;24590;-86
2022/06/14 09:20:05;;;;;;;;;;;;;;;19.21;100.00;98693.81;1641852;86;20249;-89
2022/06/14 09:22:54;;;;;;;;;;;;;;;19.27;100.00;98695.50;1672162;84;24765;-90
2022/06/14 09:25:38;;;;;;;;;;;;;;;19.31;100.00;98686.27;1671794;84;22111;-89
2022/06/14 09:28:06;;;;;;;;;;;;;;;19.33;100.00;98680.29;1675057;84;26872;-87
2022/06/14 09:30:43;;;;;;;;;;;;;;;19.30;100.00;98681.45;1678018;84;25243;-90
2022/06/14 09:33:21;;;;;;;;;;;;;;;19.40;100.00;98680.84;1646807;85;20222;-90
2022/06/14 09:36:07;;;;;;;;;;;;;;;19.52;100.00;98683.61;1635325;86;25665;-87
2022/06/14 09:38:35;;;;;;;;;;;;;;;19.68;100.00;98684.69;1630267;86;22072;-86
2022/06/14 09:41:21;;;;;;;;;;;;;;;19.80;100.00;98684.75;1629927;86;23777;-87
2022/06/14 09:43:53;;;;;;;;;;;;;;;19.86;100.00;98685.41;1626277;86;24847;-87
2022/06/14 09:46:38;;;;;;;;;;;;;;;19.82;100.00;98682.74;1630612;86;20295;-90
2022/06/14 09:49:11;;;;;;;;;;;;;;;19.82;100.00;98678.76;1629002;88;24831;-90
2022/06/14 09:51:39;;;;;;;;;;;;;;;19.83;100.00;98681.76;1632267;86;21872;-86
2022/06/14 09:54:16;;;;;;;;;;;;;;;19.81;100.00;98686.39;1628514;86;26113;-87
2022/06/14 09:57:00;;;;;;;;;;;;;;;19.85;100.00;98685.09;1630764;86;24647;-86
2022/06/14 09:59:35;;;;;;;;;;;;;;;19.86;100.00;98684.08;1629770;86;20621;-85
2022/06/14 10:02:15;;;;;;;;;;;;;;;19.94;100.00;98682.80;1629657;86;24738;-86
2022/06/14 10:05:00;;;;;;;;;;;;;;;19.91;100.00;98679.95;1628114;86;21989;-87
2022/06/14 10:07:45;;;;;;;;;;;;;;;19.99;100.00;98673.36;1628885;86;26010;-86
2022/06/14 10:10:31;;;;;;;;;;;;;;;19.99;100.00;98674.69;1626435;87;24535;-86
2022/06/14 10:13:11;;;;;;;;;;;;;;;20.04;99.84;98680.84;1630625;87;20432;-90
2022/06/14 10:15:45;;;;;;;;;;;;;;;20.02;99.10;98674.84;1627813;86;25434;-89
2022/06/14 10:18:13;;;;;;;;;;;;;;;20.07;98.30;98670.41;1600796;88;21946;-89
2022/06/14 10:20:40;;;;;;;;;;;;;;;20.05;97.31;98674.55;1587442;89;26742;-90
2022/06/14 10:23:14;;;;;;;;;;;;;;;20.12;97.10;98676.91;1594340;88;24278;-87
2022/06/14 10:28:11;;;;;;;;;;;;;;;20.25;97.18;98676.42;1597903;87;20346;-86
2022/06/14 10:28:21;;;;;;;;;;;;;;;20.34;96.79;98681.64;1575876;89;25456;-86
2022/06/14 10:30:52;;;;;;;;;;;;;;;20.37;96.15;98679.14;1575404;89;22903;-86
2022/06/14 10:33:23;;;;;;;;;;;;;;;20.42;95.65;98671.02;1607283;87;26732;-86
2022/06/14 10:36:10;;;;;;;;;;;;;;;20.46;95.02;98668.85;1674275;85;24717;-86
2022/06/14 10:38:37;;;;;;;;;;;;;;;20.53;94.73;98666.38;1662418;84;20223;-89
2022/06/14 10:41:05;;;;;;;;;;;;;;;20.46;93.69;98661.70;1665330;84;24825;-90
2022/06/14 10:43:33;;;;;;;;;;;;;;;20.39;92.78;98670.03;1665020;84;22120;-90
2022/06/14 10:46:04;;;;;;;;;;;;;;;20.36;91.98;98661.03;1625547;87;26094;-86
2022/06/14 10:51:19;;;;;;;;;;;;;;;20.59;91.44;98656.41;1650545;86;20267;-87
2022/06/14 10:53:55;;;;;;;;;;;;;;;20.55;90.83;98653.75;1632025;87;24835;-87
2022/06/14 10:56:39;;;;;;;;;;;;;;;20.52;90.40;98649.58;1639467;85;22082;-87
2022/06/14 10:59:10;;;;;;;;;;;;;;;20.40;89.71;98650.92;1617322;87;26072;-89
2022/06/14 11:01:41;;;;;;;;;;;;;;;20.49;89.28;98647.27;1629167;87;24452;-89
2022/06/14 11:04:18;;;;;;;;;;;;;;;20.61;89.08;98650.44;1616321;87;20290;-89
2022/06/14 11:06:55;;;;;;;;;;;;;;;20.73;88.76;98651.78;1639224;86;24929;-86
2022/06/14 11:09:22;;;;;;;;;;;;;;;20.67;87.99;98653.28;1647738;86;22037;-85
2022/06/14 11:11:56;;;;;;;;;;;;;;;20.58;87.18;98653.41;1646410;86;26600;-85
2022/06/14 11:14:27;;;;;;;;;;;;;;;20.72;87.16;98648.78;1612341;87;24536;-86
2022/06/14 11:17:01;;;;;;;;;;;;;;;20.74;86.60;98646.28;1628316;87;20233;-86
2022/06/14 11:19:41;;;;;;;;;;;;;;;20.89;86.57;98640.61;1616000;88;24736;-86
2022/06/14 11:22:18;;;;;;;;;;;;;;;21.07;86.63;98644.43;1634904;86;22012;-86
2022/06/14 11:24:59;;;;;;;;;;;;;;;21.12;86.51;98643.42;1651720;86;26087;-87
2022/06/14 11:27:36;;;;;;;;;;;;;;;21.13;86.05;98642.43;1646625;86;24502;-86
2022/06/14 11:30:19;;;;;;;;;;;;;;;21.08;85.42;98645.27;1647372;86;20338;-86
2022/06/14 11:32:53;;;;;;;;;;;;;;;20.98;84.52;98648.11;1639559;86;24758;-87
2022/06/14 11:35:27;;;;;;;;;;;;;;;20.94;84.23;98645.45;1631597;86;22116;-86
2022/06/14 11:38:00;;;;;;;;;;;;;;;20.90;83.69;98645.44;1630524;86;26670;-89
2022/06/14 11:40:33;;;;;;;;;;;;;;;20.99;83.21;98648.45;1608073;88;25239;-86
2022/06/14 11:43:18;;;;;;;;;;;;;;;21.04;82.92;98640.79;1664930;84;20219;-89
2022/06/14 11:45:46;;;;;;;;;;;;;;;21.12;82.77;98647.91;1662249;85;24769;-86
2022/06/14 11:48:32;;;;;;;;;;;;;;;21.15;82.35;98644.96;1665114;85;22035;-86
2022/06/14 11:51:07;;;;;;;;;;;;;;;21.20;81.87;98643.95;1665668;84;26653;-86
2022/06/14 11:53:35;;;;;;;;;;;;;;;21.39;81.64;98644.06;1662356;84;24564;-87
2022/06/14 11:56:12;;;;;;;;;;;;;;;21.63;82.09;98644.01;1665134;84;20252;-86
2022/06/14 11:58:39;;;;;;;;;;;;;;;21.72;81.82;98642.97;1665884;84;25166;-86
2022/06/14 12:01:10;;;;;;;;;;;;;;;21.71;81.37;98642.66;1665853;85;22127;-86
2022/06/14 12:03:53;;;;;;;;;;;;;;;21.70;81.11;98642.33;1669539;84;25978;-87
2022/06/14 12:06:39;;;;;;;;;;;;;;;21.63;80.02;98637.34;1666246;85;24409;-89
2022/06/14 12:09:24;;;;;;;;;;;;;;;21.60;79.20;98643.03;1663391;85;20351;-87
2022/06/14 12:11:52;;;;;;;;;;;;;;;21.65;78.94;98642.02;1669460;85;24787;-86
2022/06/14 12:14:19;;;;;;;;;;;;;;;21.65;78.42;98636.69;1666290;85;21991;-89
2022/06/14 12:16:47;;;;;;;;;;;;;;;21.62;77.69;98637.02;1669892;84;26127;-89
2022/06/14 12:19:15;;;;;;;;;;;;;;;21.64;77.41;98633.69;1661067;84;24548;-86
2022/06/14 12:22:01;;;;;;;;;;;;;;;21.71;77.32;98639.47;1671471;83;20200;-88
2022/06/14 12:26:34;;;;;;;;;;;;;;;21.65;76.88;98636.69;1669040;84;25403;-89
2022/06/14 12:27:01;;;;;;;;;;;;;;;21.49;76.22;98636.74;1667357;85;22713;-86
2022/06/14 12:29:32;;;;;;;;;;;;;;;21.44;75.89;98635.89;1637110;86;26103;-85
2022/06/14 12:32:06;;;;;;;;;;;;;;;21.43;75.89;98634.26;1603371;87;24600;-85
2022/06/14 12:34:34;;;;;;;;;;;;;;;21.42;75.40;98629.09;1610947;88;20310;-86
2022/06/14 12:37:14;;;;;;;;;;;;;;;21.50;75.27;98629.05;1592651;87;25563;-86
2022/06/14 12:39:57;;;;;;;;;;;;;;;21.50;74.92;98630.39;1626380;86;22045;-86
2022/06/14 12:42:25;;;;;;;;;;;;;;;21.46;74.16;98623.75;1626709;86;25854;-85
2022/06/14 12:44:53;;;;;;;;;;;;;;;21.58;74.18;98622.39;1660525;85;24452;-85
2022/06/14 12:47:23;;;;;;;;;;;;;;;21.70;74.31;98617.85;1659601;85;20216;-89
2022/06/14 12:49:51;;;;;;;;;;;;;;;21.74;73.84;98614.83;1636567;86;24901;-89
2022/06/14 12:52:19;;;;;;;;;;;;;;;21.67;72.90;98624.00;1632712;86;22068;-89
2022/06/14 12:54:53;;;;;;;;;;;;;;;21.60;71.95;98618.53;1615828;87;25988;-90
2022/06/14 12:57:24;;;;;;;;;;;;;;;21.55;71.43;98622.71;1618761;87;24505;-89
2022/06/14 13:00:02;;;;;;;;;;;;;;;21.58;71.35;98616.56;1614478;87;20277;-86
2022/06/14 13:02:36;;;;;;;;;;;;;;;21.49;70.58;98611.44;1612086;87;25532;-85
2022/06/14 13:05:04;;;;;;;;;;;;;;;21.33;69.67;98612.83;1632446;86;21921;-85
2022/06/14 13:07:31;;;;;;;;;;;;;;;21.22;69.33;98611.36;1628031;86;26854;-85
2022/06/14 13:10:12;;;;;;;;;;;;;;;21.25;69.43;98607.01;1632348;86;24614;-85
2022/06/14 13:12:58;;;;;;;;;;;;;;;21.20;68.75;98611.52;1633357;86;20257;-87
2022/06/14 13:15:25;;;;;;;;;;;;;;;21.12;68.24;98608.83;1629090;86;24918;-86
2022/06/14 13:17:59;;;;;;;;;;;;;;;21.24;68.23;98609.33;1658791;85;21955;-86
2022/06/14 13:20:44;;;;;;;;;;;;;;;21.41;68.58;98604.80;1657981;85;26080;-86
2022/06/14 13:23:18;;;;;;;;;;;;;;;21.55;69.01;98598.24;1609157;88;24443;-86